Time;durP1;ratioP1;P1;durP2;ratioP2;P2;SDS_P1;SDS_P2;PMS_P1;PMS_P2;Temp;Humidity;BMP_temperature;BMP_pressure;BME280_temperature;BME280_humidity;BME280_pressure;Samples;Min_cycle;Max_cycle;Signal;HPM_P1;HPM_P2
2023/11/18 00:00:34;;;;;;;71.87;25.20;;;;;;;;;;5081747;28;20039;-80
2023/11/18 00:03:00;;;;;;;69.77;24.03;;;3.80;99.90;;;;;;5098697;28;20024;-80
2023/11/18 00:05:26;;;;;;;83.47;25.93;;;3.60;99.90;;;;;;5086828;28;20030;-80
2023/11/18 00:07:52;;;;;;;82.87;26.50;;;;;;;;;;5089083;28;20039;-80
2023/11/18 00:10:18;;;;;;;88.13;26.23;;;;;;;;;;5083830;28;20047;-80
2023/11/18 00:12:44;;;;;;;75.77;25.67;;;;;;;;;;5088570;28;20820;-79
2023/11/18 00:15:11;;;;;;;78.77;26.67;;;;;;;;;;5077883;28;20056;-80
2023/11/18 00:17:37;;;;;;;88.67;27.53;;;;;;;;;;5097628;28;20029;-79
2023/11/18 00:20:08;;;;;;;95.03;27.43;;;;;;;;;;5077438;28;20081;-79
2023/11/18 00:22:37;;;;;;;91.17;28.13;;;;;;;;;;5061161;28;20045;-80
2023/11/18 00:25:07;;;;;;;90.63;26.37;;;;;;;;;;5077586;28;20040;-79
2023/11/18 00:27:36;;;;;;;85.30;27.80;;;;;;;;;;5079124;28;20036;-80
2023/11/18 00:30:04;;;;;;;92.20;26.63;;;;;;;;;;5078625;28;20582;-80
2023/11/18 00:32:31;;;;;;;104.97;29.03;;;;;;;;;;5081738;28;20098;-79
2023/11/18 00:34:57;;;;;;;120.07;29.47;;;;;;;;;;5079816;28;20060;-80
2023/11/18 00:37:23;;;;;;;130.40;32.63;;;;;;;;;;5082584;28;20059;-78
2023/11/18 00:39:57;;;;;;;130.77;34.90;;;;;;;;;;5084204;28;20060;-81
2023/11/18 00:42:23;;;;;;;132.37;35.23;;;;;;;;;;5081667;28;20098;-78
2023/11/18 00:44:49;;;;;;;138.57;32.40;;;;;;;;;;5083211;28;20032;-80
2023/11/18 00:47:15;;;;;;;138.43;32.53;;;;;;;;;;5080949;28;20033;-80
2023/11/18 00:49:41;;;;;;;137.43;32.60;;;;;;;;;;5081282;28;20055;-80
2023/11/18 00:52:08;;;;;;;129.83;32.67;;;;;;;;;;5083122;28;20027;-79
2023/11/18 00:54:36;;;;;;;123.77;33.60;;;;;;;;;;5098969;28;20453;-80
2023/11/18 00:57:03;;;;;;;118.63;34.30;;;;;;;;;;5064863;28;20382;-80
2023/11/18 00:59:29;;;;;;;150.40;32.13;;;;;;;;;;5089773;28;20028;-80
2023/11/18 01:01:55;;;;;;;133.80;33.13;;;;;;;;;;5063993;28;20024;-79
2023/11/18 01:04:21;;;;;;;130.07;33.83;;;;;;;;;;5078205;28;20047;-78
2023/11/18 01:06:48;;;;;;;141.37;34.57;;;;;;;;;;5082105;28;20506;-80
2023/11/18 01:09:16;;;;;;;134.17;33.43;;;;;;;;;;5071830;28;20028;-79
2023/11/18 01:11:42;;;;;;;138.47;33.57;;;;;;;;;;5081172;28;20028;-79
2023/11/18 01:14:08;;;;;;;117.67;32.83;;;;;;;;;;5088154;28;20028;-79
2023/11/18 01:16:34;;;;;;;128.07;33.83;;;;;;;;;;5074386;28;20052;-78
2023/11/18 01:19:00;;;;;;;133.10;32.40;;;;;;;;;;5078462;28;20510;-79
2023/11/18 01:21:27;;;;;;;137.17;31.13;;;;;;;;;;5090224;28;20039;-79
2023/11/18 01:23:53;;;;;;;126.93;32.87;;;;;;;;;;5105252;27;20039;-79
2023/11/18 01:26:19;;;;;;;116.37;32.43;;;;;;;;;;5074422;28;20032;-80
2023/11/18 01:28:46;;;;;;;126.17;31.13;;;;;;;;;;5075709;28;20036;-80
2023/11/18 01:31:13;;;;;;;117.03;32.90;;;;;;;;;;5074542;28;20028;-80
2023/11/18 01:33:40;;;;;;;124.83;30.73;;;;;;;;;;5071664;28;20024;-79
2023/11/18 01:36:06;;;;;;;120.03;32.03;;;;;;;;;;5088007;28;20040;-79
2023/11/18 01:38:32;;;;;;;100.67;31.00;;;;;;;;;;5079954;28;20033;-79
2023/11/18 01:41:00;;;;;;;128.67;32.37;;;3.60;99.90;;;;;;5071432;28;20055;-80
2023/11/18 01:43:26;;;;;;;112.33;31.03;;;4.20;99.90;;;;;;5071258;28;20582;-79
2023/11/18 01:45:54;;;;;;;124.37;32.03;;;4.20;99.90;;;;;;5101369;27;20120;-80
2023/11/18 01:48:22;;;;;;;126.87;32.57;;;4.30;99.90;;;;;;5071967;28;20130;-78
2023/11/18 01:50:49;;;;;;;93.20;30.10;;;4.30;99.90;;;;;;5068347;28;20023;-79
2023/11/18 01:53:15;;;;;;;126.00;32.57;;;4.20;99.90;;;;;;5070670;28;20450;-79
2023/11/18 01:55:41;;;;;;;111.70;34.47;;;4.30;99.90;;;;;;5075216;28;20452;-78
2023/11/18 01:58:10;;;;;;;97.40;32.70;;;4.30;99.90;;;;;;5079902;28;20094;-80
2023/11/18 02:00:39;;;;;;;108.40;33.53;;;4.20;99.90;;;;;;5072716;28;20472;-79
2023/11/18 02:03:05;;;;;;;111.27;32.23;;;4.30;99.90;;;;;;5069725;28;20031;-80
2023/11/18 02:05:35;;;;;;;119.10;31.43;;;4.30;99.90;;;;;;5074023;28;20040;-80
2023/11/18 02:08:04;;;;;;;106.00;34.67;;;4.30;99.90;;;;;;5076079;28;20048;-80
2023/11/18 02:11:02;;;;;;;108.93;33.17;;;4.30;99.90;;;;;;5075406;28;20020;-79
2023/11/18 02:13:32;;;;;;;112.00;32.57;;;4.30;99.90;;;;;;5050917;28;20118;-79
2023/11/18 02:15:59;;;;;;;108.80;31.80;;;4.30;99.90;;;;;;5076422;28;20020;-80
2023/11/18 02:18:29;;;;;;;109.53;31.20;;;4.30;99.90;;;;;;5072460;28;20518;-80
2023/11/18 02:20:59;;;;;;;124.30;31.50;;;4.30;99.90;;;;;;5073761;28;20059;-80
2023/11/18 02:23:28;;;;;;;120.47;33.17;;;4.30;99.90;;;;;;5078863;28;20025;-80
2023/11/18 02:25:58;;;;;;;120.93;32.67;;;4.30;99.90;;;;;;5072120;28;20049;-80
2023/11/18 02:28:24;;;;;;;133.33;31.60;;;4.30;99.90;;;;;;5071776;28;20048;-79
2023/11/18 02:30:54;;;;;;;93.80;31.33;;;4.30;99.90;;;;;;5072327;28;20036;-80
2023/11/18 02:33:29;;;;;;;115.17;33.17;;;4.40;99.90;;;;;;5070901;28;20013;-79
2023/11/18 02:36:02;;;;;;;106.60;34.00;;;4.30;99.90;;;;;;5075079;28;20036;-78
2023/11/18 02:38:36;;;;;;;112.17;32.60;;;4.30;99.90;;;;;;5072297;28;20456;-79
2023/11/18 02:41:08;;;;;;;102.70;33.00;;;4.30;99.90;;;;;;5072754;28;20029;-80
2023/11/18 02:43:37;;;;;;;97.05;31.50;;;4.30;99.90;;;;;;5062853;28;20025;-80
2023/11/18 02:46:07;;;;;;;108.63;32.90;;;4.30;99.90;;;;;;5066923;28;20119;-79
2023/11/18 02:48:33;;;;;;;122.27;31.43;;;4.20;99.90;;;;;;5060642;28;20100;-80
2023/11/18 02:50:59;;;;;;;106.77;32.97;;;4.20;99.90;;;;;;5060870;28;20024;-80
2023/11/18 02:53:25;;;;;;;105.87;32.80;;;4.20;99.90;;;;;;5062538;28;20021;-79
2023/11/18 02:55:54;;;;;;;132.83;34.37;;;4.20;99.90;;;;;;5077365;28;20039;-77
2023/11/18 02:58:20;;;;;;;108.70;32.00;;;4.30;99.90;;;;;;5061007;28;20641;-79
2023/11/18 03:00:46;;;;;;;114.20;32.93;;;4.30;99.90;;;;;;5080290;28;20025;-78
2023/11/18 03:03:14;;;;;;;100.07;32.13;;;4.20;99.90;;;;;;5059739;28;20028;-79
2023/11/18 03:05:39;;;;;;;101.27;33.80;;;4.20;99.90;;;;;;5061046;28;20029;-79
2023/11/18 03:08:08;;;;;;;104.70;31.17;;;4.20;99.90;;;;;;5060650;28;20095;-80
2023/11/18 03:10:35;;;;;;;120.97;32.23;;;4.20;99.90;;;;;;5079719;28;20092;-79
2023/11/18 03:13:01;;;;;;;118.07;31.10;;;4.20;99.90;;;;;;5076979;28;20025;-79
2023/11/18 03:15:28;;;;;;;98.73;30.97;;;4.30;99.90;;;;;;5064565;28;20021;-80
2023/11/18 03:17:54;;;;;;;113.53;32.90;;;4.30;99.90;;;;;;5063227;28;20033;-79
2023/11/18 03:20:22;;;;;;;111.03;31.70;;;4.30;99.90;;;;;;5063560;28;20167;-78
2023/11/18 03:22:49;;;;;;;100.53;31.43;;;4.30;99.90;;;;;;5065695;28;20025;-79
2023/11/18 03:25:16;;;;;;;112.97;30.87;;;4.30;99.90;;;;;;5064712;28;20036;-80
2023/11/18 03:27:42;;;;;;;95.13;30.13;;;4.30;99.90;;;;;;5059922;28;20029;-80
2023/11/18 03:30:09;;;;;;;97.57;31.20;;;4.30;99.90;;;;;;5062202;28;20029;-79
2023/11/18 03:32:36;;;;;;;88.23;29.40;;;4.30;99.90;;;;;;5060502;28;20112;-80
2023/11/18 03:35:08;;;;;;;110.87;29.83;;;4.30;99.90;;;;;;5042430;28;20032;-80
2023/11/18 03:37:41;;;;;;;106.03;29.65;;;4.30;99.90;;;;;;5031326;28;20059;-80
2023/11/18 03:40:07;;;;;;;;;;;4.40;99.90;;;;;;5044658;28;20037;-80
2023/11/18 03:42:33;;;;;;;99.50;28.33;;;4.30;99.90;;;;;;5029850;28;19909;-79
2023/11/18 03:44:58;;;;;;;95.30;29.87;;;4.40;99.90;;;;;;5041212;28;20624;-79
2023/11/18 03:47:24;;;;;;;88.60;28.40;;;4.30;99.90;;;;;;5040879;28;20095;-78
2023/11/18 03:49:51;;;;;;;99.07;31.47;;;4.30;99.90;;;;;;5042339;28;20483;-78
2023/11/18 03:52:16;;;;;;;101.77;29.77;;;4.30;99.90;;;;;;5027110;28;20044;-80
2023/11/18 03:54:42;;;;;;;111.13;30.50;;;4.20;99.90;;;;;;5031459;28;20041;-79
2023/11/18 03:57:08;;;;;;;106.77;31.40;;;4.20;99.90;;;;;;5029281;28;21746;-80
2023/11/18 03:59:33;;;;;;;125.93;31.50;;;4.20;99.90;;;;;;5061100;28;20059;-78
2023/11/18 04:01:59;;;;;;;99.63;29.10;;;4.20;99.90;;;;;;5056880;28;20045;-80
2023/11/18 04:04:25;;;;;;;140.60;30.60;;;4.20;99.90;;;;;;5041793;28;20025;-79
2023/11/18 04:06:51;;;;;;;114.20;31.90;;;4.20;99.90;;;;;;5060128;28;20060;-78
2023/11/18 04:09:16;;;;;;;97.67;30.27;;;4.20;99.90;;;;;;5062979;28;20028;-79
2023/11/18 04:11:44;;;;;;;105.73;30.37;;;4.20;99.90;;;;;;5063982;28;20043;-80
2023/11/18 04:14:10;;;;;;;123.53;31.53;;;4.20;99.90;;;;;;5098184;28;20625;-76
2023/11/18 04:16:37;;;;;;;97.27;30.53;;;4.20;99.90;;;;;;5069127;28;20024;-79
2023/11/18 04:19:04;;;;;;;96.57;30.03;;;4.10;99.90;;;;;;5085294;28;20033;-80
2023/11/18 04:21:29;;;;;;;109.03;31.47;;;4.20;99.90;;;;;;5085157;28;20026;-79
2023/11/18 04:23:55;;;;;;;97.13;32.27;;;4.10;99.90;;;;;;5099434;28;20038;-79
2023/11/18 04:26:21;;;;;;;111.83;30.83;;;4.10;99.90;;;;;;5083655;28;20028;-79
2023/11/18 04:28:46;;;;;;;99.73;31.90;;;4.20;99.90;;;;;;5065369;28;20064;-79
2023/11/18 04:31:12;;;;;;;107.80;32.63;;;4.20;99.90;;;;;;5064687;28;20074;-79
2023/11/18 04:33:40;;;;;;;98.70;30.90;;;4.10;99.90;;;;;;5066676;28;20017;-79
2023/11/18 04:36:09;;;;;;;114.87;32.57;;;4.20;99.90;;;;;;5064181;28;20028;-79
2023/11/18 04:38:35;;;;;;;115.67;31.50;;;4.20;99.90;;;;;;5081733;28;20111;-78
2023/11/18 04:41:03;;;;;;;115.57;34.57;;;4.20;99.90;;;;;;5069480;28;20040;-79
2023/11/18 04:43:30;;;;;;;109.80;32.73;;;4.20;99.90;;;;;;5078580;28;20043;-81
2023/11/18 04:45:56;;;;;;;118.10;29.53;;;4.20;99.90;;;;;;5077193;28;20021;-80
2023/11/18 04:48:21;;;;;;;100.80;31.63;;;4.20;99.90;;;;;;5077774;28;20044;-81
2023/11/18 04:50:47;;;;;;;100.80;32.33;;;4.10;99.90;;;;;;5076563;28;20032;-79
2023/11/18 04:53:13;;;;;;;120.03;31.83;;;4.20;99.90;;;;;;5072110;28;20027;-80
2023/11/18 04:55:39;;;;;;;107.17;31.87;;;4.20;99.90;;;;;;5078324;28;20368;-79
2023/11/18 04:58:05;;;;;;;117.30;33.27;;;4.10;99.90;;;;;;5079589;28;20020;-81
2023/11/18 05:00:41;;;;;;;121.93;31.97;;;4.20;99.90;;;;;;5075389;28;20104;-80
2023/11/18 05:03:10;;;;;;;112.30;31.07;;;4.20;99.90;;;;;;5090040;28;20040;-80
2023/11/18 05:05:39;;;;;;;114.73;33.33;;;4.20;99.90;;;;;;5079521;28;20024;-80
2023/11/18 05:08:08;;;;;;;111.23;33.03;;;4.10;99.90;;;;;;5111226;28;20030;-80
2023/11/18 05:10:35;;;;;;;144.00;33.33;;;4.20;99.90;;;;;;5084285;28;20020;-80
2023/11/18 05:13:01;;;;;;;103.27;31.83;;;4.10;99.90;;;;;;5098898;28;20027;-79
2023/11/18 05:15:27;;;;;;;96.60;32.00;;;4.20;99.90;;;;;;5083444;28;20032;-80
2023/11/18 05:17:53;;;;;;;123.13;34.53;;;4.10;99.90;;;;;;5082120;28;20035;-79
2023/11/18 05:20:20;;;;;;;119.50;34.27;;;4.20;99.90;;;;;;5082212;28;20040;-80
2023/11/18 05:22:46;;;;;;;103.03;31.77;;;4.20;99.90;;;;;;5086993;28;20070;-80
2023/11/18 05:25:12;;;;;;;141.87;32.10;;;4.10;99.90;;;;;;5113980;28;20032;-80
2023/11/18 05:27:40;;;;;;;115.10;34.33;;;4.30;99.90;;;;;;5070064;28;20138;-79
2023/11/18 05:30:08;;;;;;;98.77;32.23;;;4.30;99.90;;;;;;5097932;28;20020;-80
2023/11/18 05:32:33;;;;;;;115.17;33.40;;;4.30;99.90;;;;;;5081425;28;20055;-80
2023/11/18 05:34:59;;;;;;;114.10;31.80;;;4.30;99.90;;;;;;5089656;28;20353;-80
2023/11/18 05:37:25;;;;;;;106.33;32.10;;;4.30;99.90;;;;;;5086939;28;20028;-80
2023/11/18 05:39:59;;;;;;;129.37;32.33;;;4.30;99.90;;;;;;5081431;28;20043;-81
2023/11/18 05:42:27;;;;;;;126.37;31.73;;;4.30;99.90;;;;;;5079603;28;20025;-79
2023/11/18 05:44:59;;;;;;;98.97;33.83;;;4.40;99.90;;;;;;5071979;28;20370;-80
2023/11/18 05:47:27;;;;;;;99.97;33.20;;;4.40;99.90;;;;;;5058560;28;20151;-79
2023/11/18 05:49:53;;;;;;;116.83;33.80;;;4.40;99.90;;;;;;5056959;28;20054;-79
2023/11/18 05:52:22;;;;;;;121.00;31.33;;;4.40;99.90;;;;;;5044026;28;20051;-80
2023/11/18 05:54:48;;;;;;;106.43;30.90;;;4.40;99.90;;;;;;5058529;28;20120;-80
2023/11/18 05:57:17;;;;;;;111.57;30.80;;;4.40;99.90;;;;;;5037243;28;20065;-81
2023/11/18 05:59:43;;;;;;;126.10;32.83;;;4.40;99.90;;;;;;5076026;28;20036;-80
2023/11/18 06:02:17;;;;;;;110.33;33.13;;;4.30;99.90;;;;;;5068665;28;20062;-80
2023/11/18 06:04:43;;;;;;;108.90;30.87;;;4.30;99.90;;;;;;5050913;28;20029;-79
2023/11/18 06:07:08;;;;;;;93.07;31.43;;;4.40;99.90;;;;;;5042120;28;20040;-80
2023/11/18 06:09:34;;;;;;;103.03;31.83;;;4.40;99.90;;;;;;5068601;28;20027;-79
2023/11/18 06:12:02;;;;;;;96.50;30.07;;;4.40;99.90;;;;;;5042447;28;20039;-80
2023/11/18 06:14:27;;;;;;;107.63;30.07;;;4.50;99.90;;;;;;5059881;28;20029;-80
2023/11/18 06:16:53;;;;;;;93.33;30.30;;;4.50;99.90;;;;;;5068622;28;20025;-78
2023/11/18 06:19:22;;;;;;;92.83;29.73;;;4.50;99.90;;;;;;5064799;28;20036;-78
2023/11/18 06:21:47;;;;;;;115.90;29.53;;;4.30;99.90;;;;;;5098745;28;20131;-80
2023/11/18 06:24:14;;;;;;;121.63;30.53;;;4.40;99.90;;;;;;5065692;28;20091;-78
2023/11/18 06:26:41;;;;;;;87.90;29.80;;;4.50;99.90;;;;;;5067900;28;20037;-78
2023/11/18 06:29:07;;;;;;;82.77;28.57;;;4.50;99.90;;;;;;5081787;28;20032;-80
2023/11/18 06:31:32;;;;;;;106.03;28.77;;;4.50;99.90;;;;;;5098164;28;20384;-79
2023/11/18 06:33:58;;;;;;;86.47;28.10;;;4.40;99.90;;;;;;5062099;28;20032;-78
2023/11/18 06:36:26;;;;;;;84.53;28.70;;;4.40;99.90;;;;;;5063970;28;20021;-79
2023/11/18 06:38:53;;;;;;;84.73;26.50;;;4.40;99.90;;;;;;5078098;28;20029;-80
2023/11/18 06:41:23;;;;;;;89.63;28.20;;;4.50;99.90;;;;;;5063101;28;20024;-79
2023/11/18 06:46:24;;;;;;;85.43;27.40;;;4.50;99.90;;;;;;5064305;28;20398;-79
2023/11/18 06:48:54;;;;;;;105.67;28.50;;;4.50;99.90;;;;;;5063214;28;20045;-78
2023/11/18 06:51:24;;;;;;;96.90;24.90;;;4.50;99.90;;;;;;5081036;28;20029;-79
2023/11/18 06:53:57;;;;;;;87.90;28.33;;;4.50;99.90;;;;;;5106252;27;20115;-80
2023/11/18 06:56:26;;;;;;;74.63;26.17;;;4.60;99.90;;;;;;5073229;28;20040;-78
2023/11/18 06:58:52;;;;;;;75.47;26.20;;;4.50;99.90;;;;;;5072416;28;20040;-79
2023/11/18 07:01:18;;;;;;;85.07;25.70;;;4.50;99.90;;;;;;5069704;28;20374;-79
2023/11/18 07:03:53;;;;;;;77.73;26.37;;;4.60;99.90;;;;;;5071185;28;20032;-78
2023/11/18 07:06:23;;;;;;;72.73;24.70;;;4.60;99.90;;;;;;5073898;28;20040;-79
2023/11/18 07:08:49;;;;;;;73.53;26.83;;;4.60;99.90;;;;;;5072014;28;20032;-80
2023/11/18 07:11:16;;;;;;;75.60;26.30;;;4.60;99.90;;;;;;5079474;28;20040;-79
2023/11/18 07:13:42;;;;;;;81.83;27.63;;;4.70;99.90;;;;;;5076905;28;20039;-78
2023/11/18 07:16:09;;;;;;;78.20;26.87;;;4.60;99.90;;;;;;5069281;28;20035;-79
2023/11/18 07:18:35;;;;;;;76.80;25.73;;;4.70;99.90;;;;;;5071277;28;20021;-78
2023/11/18 07:21:04;;;;;;;82.80;24.83;;;4.70;99.90;;;;;;5073743;28;20454;-80
2023/11/18 07:23:30;;;;;;;64.90;22.43;;;4.80;99.90;;;;;;5071170;28;20111;-79
2023/11/18 07:25:56;;;;;;;74.53;24.03;;;4.90;99.90;;;;;;5074347;28;20060;-79
2023/11/18 07:28:22;;;;;;;62.40;22.70;;;4.90;99.90;;;;;;5079315;28;20028;-79
2023/11/18 07:30:48;;;;;;;63.97;23.30;;;4.90;99.90;;;;;;5070521;28;20025;-78
2023/11/18 07:33:18;;;;;;;61.60;23.23;;;4.90;99.90;;;;;;5068693;28;21743;-79
2023/11/18 07:35:46;;;;;;;60.73;24.87;;;4.90;99.90;;;;;;5104402;28;20509;-80
2023/11/18 07:38:12;;;;;;;64.00;23.27;;;4.90;99.90;;;;;;5048232;28;20170;-80
2023/11/18 07:40:42;;;;;;;58.47;21.30;;;5.00;99.90;;;;;;5067025;28;20149;-79
2023/11/18 07:43:11;;;;;;;55.07;22.77;;;5.00;99.90;;;;;;5040793;28;20127;-79
2023/11/18 07:45:38;;;;;;;66.07;21.13;;;4.90;99.90;;;;;;5038383;28;20029;-78
2023/11/18 07:48:14;;;;;;;54.13;23.07;;;4.90;99.90;;;;;;5037628;28;20032;-79
2023/11/18 07:50:40;;;;;;;50.83;22.07;;;5.00;99.90;;;;;;5052958;28;20033;-80
2023/11/18 07:53:07;;;;;;;60.57;22.83;;;5.00;99.90;;;;;;5040684;28;20093;-78
2023/11/18 07:55:39;;;;;;;58.73;21.30;;;5.00;99.90;;;;;;5067903;28;20030;-79
2023/11/18 07:58:11;;;;;;;52.17;20.45;;;4.90;99.90;;;;;;5051561;28;20025;-79
2023/11/18 08:00:41;;;;;;;47.72;19.60;;;5.10;99.90;;;;;;5068641;28;20604;-79
2023/11/18 08:03:11;;;;;;;45.70;20.03;;;5.30;99.90;;;;;;5035167;28;20048;-79
2023/11/18 08:05:40;;;;;;;45.93;19.47;;;5.20;99.90;;;;;;5050292;28;20052;-79
2023/11/18 08:08:07;;;;;;;51.50;22.47;;;5.20;99.90;;;;;;5041109;28;20024;-80
2023/11/18 08:10:39;;;;;;;53.33;23.33;;;5.20;99.90;;;;;;5068837;28;20028;-80
2023/11/18 08:13:07;;;;;;;45.00;20.40;;;5.20;99.90;;;;;;5067164;28;20028;-78
2023/11/18 08:15:42;;;;;;;44.30;19.20;;;5.20;99.90;;;;;;5080431;28;20456;-79
2023/11/18 08:18:10;;;;;;;40.20;18.93;;;5.30;99.90;;;;;;5068567;28;20114;-80
2023/11/18 08:20:36;;;;;;;43.37;18.73;;;5.30;99.90;;;;;;5073170;28;20103;-78
2023/11/18 08:23:04;;;;;;;41.50;18.53;;;5.30;99.90;;;;;;5070795;28;20058;-77
2023/11/18 08:25:30;;;;;;;37.60;17.90;;;5.30;99.90;;;;;;5079790;28;20025;-79
2023/11/18 08:27:55;;;;;;;45.03;19.23;;;5.40;99.90;;;;;;5072231;28;20124;-80
2023/11/18 08:30:21;;;;;;;45.17;19.27;;;5.40;99.90;;;;;;5073612;28;20025;-80
2023/11/18 08:32:48;;;;;;;35.60;18.03;;;5.40;99.90;;;;;;5077511;28;20032;-80
2023/11/18 08:35:15;;;;;;;36.07;17.90;;;5.50;99.90;;;;;;5092189;28;20230;-79
2023/11/18 08:37:45;;;;;;;38.17;18.03;;;5.50;99.90;;;;;;5076111;28;20586;-80
2023/11/18 08:40:29;;;;;;;38.67;18.90;;;5.70;99.90;;;;;;5070901;28;20036;-81
2023/11/18 08:42:57;;;;;;;38.57;18.17;;;5.50;99.90;;;;;;5062612;28;20380;-77
2023/11/18 08:45:28;;;;;;;34.17;17.13;;;5.50;99.90;;;;;;5060549;28;20025;-79
2023/11/18 08:47:55;;;;;;;42.03;17.50;;;5.60;99.90;;;;;;5062235;28;20078;-78
2023/11/18 08:50:23;;;;;;;42.90;19.50;;;5.60;99.90;;;;;;5060725;28;20033;-80
2023/11/18 08:52:52;;;;;;;35.07;17.17;;;5.60;99.90;;;;;;5082027;28;20021;-78
2023/11/18 08:55:22;;;;;;;35.60;15.70;;;5.60;99.90;;;;;;5079707;28;20032;-79
2023/11/18 08:58:03;;;;;;;35.40;16.83;;;5.60;99.90;;;;;;5097213;28;20124;-79
2023/11/18 09:03:25;;;;;;;33.22;16.40;;;5.80;99.90;;;;;;5066266;28;20055;-79
2023/11/18 09:05:57;;;;;;;34.00;16.17;;;5.80;99.90;;;;;;5065057;28;20037;-80
2023/11/18 09:08:29;;;;;;;33.75;16.05;;;5.80;99.90;;;;;;5059446;28;20033;-80
2023/11/18 09:10:56;;;;;;;33.67;16.17;;;5.80;99.90;;;;;;5061490;28;20123;-79
2023/11/18 09:13:28;;;;;;;33.90;16.93;;;5.80;99.90;;;;;;5070732;28;20041;-79
2023/11/18 09:16:00;;;;;;;30.65;15.68;;;6.00;99.90;;;;;;5066859;28;20052;-79
2023/11/18 09:18:30;;;;;;;32.53;16.17;;;5.90;99.90;;;;;;5073108;28;20453;-78
2023/11/18 09:20:58;;;;;;;34.17;15.83;;;5.90;99.90;;;;;;5068753;28;20472;-78
2023/11/18 09:23:27;;;;;;;35.77;17.37;;;5.90;99.90;;;;;;5073487;28;20028;-80
2023/11/18 09:26:00;;;;;;;32.23;16.23;;;5.90;99.90;;;;;;5065391;28;20032;-79
2023/11/18 09:28:30;;;;;;;31.83;14.83;;;6.00;99.90;;;;;;5079463;28;20052;-79
2023/11/18 09:31:00;;;;;;;29.33;14.37;;;5.90;99.90;;;;;;5081039;28;20112;-80
2023/11/18 09:33:32;;;;;;;29.77;15.53;;;6.10;99.90;;;;;;5069492;28;20016;-80
2023/11/18 09:36:04;;;;;;;29.23;15.85;;;6.00;99.90;;;;;;5047808;28;20396;-79
2023/11/18 09:38:32;;;;;;;26.37;14.30;;;6.00;99.90;;;;;;5064167;28;20038;-79
2023/11/18 09:41:03;;;;;;;31.50;15.87;;;6.10;99.90;;;;;;5081422;28;20065;-80
2023/11/18 09:43:44;;;;;;;28.97;14.47;;;6.10;99.90;;;;;;5082504;28;20097;-79
2023/11/18 09:46:14;;;;;;;28.77;15.37;;;6.20;99.90;;;;;;5098666;28;20067;-80
2023/11/18 09:48:47;;;;;;;28.83;15.37;;;6.20;99.90;;;;;;5099597;28;20073;-79
2023/11/18 09:51:21;;;;;;;27.37;14.80;;;6.20;99.90;;;;;;5067417;28;20032;-80
2023/11/18 09:53:50;;;;;;;28.40;14.33;;;6.20;99.90;;;;;;5081454;28;20028;-80
2023/11/18 09:56:43;;;;;;;28.07;14.30;;;6.40;99.90;;;;;;5067431;28;20036;-80
2023/11/18 09:59:23;;;;;;;27.60;14.10;;;6.40;99.90;;;;;;5079435;28;20454;-79
2023/11/18 10:01:56;;;;;;;27.30;14.10;;;6.50;99.90;;;;;;5065296;28;20456;-78
2023/11/18 10:04:27;;;;;;;23.70;13.23;;;6.60;99.90;;;;;;5065417;28;20028;-78
2023/11/18 10:06:53;;;;;;;23.63;12.83;;;6.60;99.90;;;;;;5082414;28;20036;-80
2023/11/18 10:09:28;;;;;;;21.83;12.53;;;6.60;99.90;;;;;;5065384;28;20050;-78
2023/11/18 10:12:00;;;;;;;22.47;13.53;;;6.70;99.90;;;;;;5081334;28;20033;-80
2023/11/18 10:14:26;;;;;;;24.65;12.20;;;6.60;99.90;;;;;;5084059;28;20052;-79
2023/11/18 10:16:54;;;;;;;19.43;11.73;;;6.70;99.90;;;;;;5095682;28;20040;-80
2023/11/18 10:19:19;;;;;;;20.67;12.23;;;6.70;99.90;;;;;;5064984;28;20028;-80
2023/11/18 10:21:48;;;;;;;24.13;12.27;;;6.70;99.90;;;;;;5065341;28;20025;-79
2023/11/18 10:24:19;;;;;;;22.73;12.17;;;6.70;99.90;;;;;;5066131;28;20441;-79
2023/11/18 10:26:54;;;;;;;19.90;12.03;;;6.90;99.90;;;;;;5065516;28;20044;-80
2023/11/18 10:29:20;;;;;;;20.07;12.37;;;6.70;99.90;;;;;;5063316;28;20057;-79
2023/11/18 10:31:45;;;;;;;21.23;11.67;;;6.80;99.90;;;;;;5079846;28;20043;-79
2023/11/18 10:34:15;;;;;;;22.50;12.07;;;6.80;99.90;;;;;;5066187;28;20084;-78
2023/11/18 10:36:41;;;;;;;20.17;11.10;;;6.80;99.90;;;;;;5085468;28;20029;-79
2023/11/18 10:39:16;;;;;;;19.80;10.53;;;6.80;99.90;;;;;;5064885;28;20036;-80
2023/11/18 10:41:43;;;;;;;21.98;10.68;;;6.80;99.90;;;;;;5072545;28;20038;-79
2023/11/18 10:44:13;;;;;;;20.63;11.60;;;6.80;99.90;;;;;;5100225;28;20468;-80
2023/11/18 10:46:40;;;;;;;22.53;11.73;;;6.90;99.90;;;;;;5088525;28;20028;-82
2023/11/18 10:49:09;;;;;;;21.40;10.80;;;6.90;99.90;;;;;;5065795;28;20024;-81
2023/11/18 10:51:38;;;;;;;17.70;10.97;;;6.90;99.90;;;;;;5084918;28;20016;-80
2023/11/18 10:54:05;;;;;;;17.60;9.90;;;6.90;99.90;;;;;;5067460;28;20016;-80
2023/11/18 10:56:32;;;;;;;21.13;10.93;;;7.00;99.90;;;;;;5085671;28;20026;-81
2023/11/18 10:59:05;;;;;;;18.40;10.23;;;7.00;99.90;;;;;;5085418;28;20036;-80
2023/11/18 11:01:42;;;;;;;16.73;9.57;;;7.10;99.90;;;;;;5070904;28;20025;-80
2023/11/18 11:04:10;;;;;;;17.20;9.73;;;7.10;99.90;;;;;;5081252;28;20044;-80
2023/11/18 11:06:52;;;;;;;16.60;10.03;;;7.10;99.90;;;;;;5080762;28;20016;-81
2023/11/18 11:09:24;;;;;;;16.07;9.87;;;7.10;99.90;;;;;;5079355;28;20028;-79
2023/11/18 11:11:55;;;;;;;17.67;10.23;;;7.30;99.90;;;;;;5083092;28;20026;-81
2023/11/18 11:14:35;;;;;;;19.30;9.20;;;7.20;99.90;;;;;;5066187;28;20021;-80
2023/11/18 11:17:11;;;;;;;19.07;10.00;;;7.20;99.90;;;;;;5077320;28;20102;-81
2023/11/18 11:20:23;;;;;;;16.03;10.10;;;7.20;99.90;;;;;;5081977;28;20455;-81
2023/11/18 11:23:12;;;;;;;20.40;9.60;;;7.20;99.90;;;;;;5086944;28;20145;-80
2023/11/18 11:25:42;;;;;;;15.30;9.80;;;7.20;99.90;;;;;;5105472;28;20254;-80
2023/11/18 11:28:13;;;;;;;18.63;9.80;;;7.20;99.90;;;;;;5078127;28;20036;-80
2023/11/18 11:30:44;;;;;;;20.23;9.93;;;7.40;99.90;;;;;;5079830;28;20021;-80
2023/11/18 11:33:29;;;;;;;17.20;9.43;;;7.30;99.90;;;;;;5080661;28;20094;-81
2023/11/18 11:35:59;;;;;;;21.37;9.70;;;7.20;99.90;;;;;;5078756;28;20016;-80
2023/11/18 11:38:26;;;;;;;16.07;10.53;;;7.30;99.90;;;;;;5078760;28;20044;-80
2023/11/18 11:40:55;;;;;;;15.73;9.83;;;7.30;99.90;;;;;;5079776;28;20078;-79
2023/11/18 11:43:21;;;;;;;19.17;10.37;;;7.20;99.90;;;;;;5079183;28;20044;-80
2023/11/18 11:45:55;;;;;;;20.57;10.27;;;7.30;99.90;;;;;;5078757;28;20036;-80
2023/11/18 11:48:28;;;;;;;19.47;11.03;;;7.30;99.90;;;;;;5079545;28;20467;-80
2023/11/18 11:50:54;;;;;;;17.50;9.73;;;7.40;99.90;;;;;;5095417;28;20021;-80
2023/11/18 11:53:27;;;;;;;20.70;10.63;;;7.30;99.90;;;;;;5079985;28;20472;-81
2023/11/18 11:55:57;;;;;;;16.67;9.43;;;7.30;99.90;;;;;;5080446;28;20095;-80
2023/11/18 11:58:27;;;;;;;16.67;9.90;;;7.30;99.90;;;;;;5079976;28;20020;-80
2023/11/18 12:00:54;;;;;;;16.77;8.13;;;7.40;99.90;;;;;;5089106;28;20108;-80
2023/11/18 12:03:24;;;;;;;16.47;8.80;;;7.40;99.90;;;;;;5088491;28;20024;-80
2023/11/18 12:05:55;;;;;;;16.03;8.60;;;7.50;99.90;;;;;;5082956;28;20527;-81
2023/11/18 12:08:22;;;;;;;13.97;8.13;;;7.50;99.90;;;;;;5078596;28;20119;-80
2023/11/18 12:10:57;;;;;;;12.73;8.50;;;7.50;99.90;;;;;;5066195;28;20032;-80
2023/11/18 12:13:26;;;;;;;20.57;8.63;;;7.40;99.90;;;;;;5073482;28;20452;-80
2023/11/18 12:16:03;;;;;;;15.10;9.13;;;7.40;99.90;;;;;;5082472;28;20016;-80
2023/11/18 12:18:33;;;;;;;14.23;9.03;;;7.50;99.90;;;;;;5071436;28;21510;-80
2023/11/18 12:21:02;;;;;;;12.60;7.37;;;7.50;99.90;;;;;;5066543;28;20029;-79
2023/11/18 12:23:30;;;;;;;14.63;8.20;;;7.50;99.90;;;;;;5096383;28;20470;-78
2023/11/18 12:25:57;;;;;;;13.97;8.83;;;7.50;99.90;;;;;;5064737;28;20021;-80
2023/11/18 12:28:34;;;;;;;14.53;7.93;;;7.60;99.90;;;;;;5101394;28;20384;-80
2023/11/18 12:31:13;;;;;;;17.47;10.23;;;7.60;99.90;;;;;;5073074;28;20056;-80
2023/11/18 12:33:51;;;;;;;13.10;8.40;;;7.60;99.90;;;;;;5086743;28;20047;-80
2023/11/18 12:36:19;;;;;;;15.00;7.53;;;7.50;99.90;;;;;;5083350;28;20056;-80
2023/11/18 12:39:14;;;;;;;15.50;8.37;;;7.50;99.90;;;;;;5070701;28;20028;-80
2023/11/18 12:41:40;;;;;;;14.80;9.37;;;7.50;99.90;;;;;;5087931;28;20063;-80
2023/11/18 12:44:39;;;;;;;15.70;8.03;;;7.60;99.90;;;;;;5067459;28;20333;-80
2023/11/18 12:47:14;;;;;;;14.73;8.43;;;7.60;99.90;;;;;;5066925;28;20032;-79
2023/11/18 12:49:41;;;;;;;15.27;8.87;;;7.60;99.90;;;;;;5067494;28;20160;-80
2023/11/18 12:52:18;;;;;;;12.73;7.63;;;7.50;99.90;;;;;;5083962;28;20059;-80
2023/11/18 12:54:44;;;;;;;12.80;7.30;;;7.60;99.90;;;;;;5067899;28;20041;-80
2023/11/18 12:57:14;;;;;;;16.87;8.77;;;7.60;99.90;;;;;;5073436;28;20052;-80
2023/11/18 12:59:40;;;;;;;12.40;8.40;;;7.60;99.90;;;;;;5081393;28;20029;-79